sensor_id;sensor_type;location;lat;lon;timestamp;temperature;humidity
7202;DHT22;3642;52.506;13.304;2022-07-12T00:02:23;19.80;91.90
7202;DHT22;3642;52.506;13.304;2022-07-12T00:04:52;19.90;92.00
7202;DHT22;3642;52.506;13.304;2022-07-12T00:07:20;19.80;92.20
7202;DHT22;3642;52.506;13.304;2022-07-12T00:09:48;19.80;92.50
7202;DHT22;3642;52.506;13.304;2022-07-12T00:12:16;19.90;92.80
7202;DHT22;3642;52.506;13.304;2022-07-12T00:14:44;19.80;92.90
7202;DHT22;3642;52.506;13.304;2022-07-12T00:17:12;19.70;93.10
7202;DHT22;3642;52.506;13.304;2022-07-12T00:19:42;19.70;93.50
7202;DHT22;3642;52.506;13.304;2022-07-12T00:22:10;19.60;93.60
7202;DHT22;3642;52.506;13.304;2022-07-12T00:24:38;19.60;94.10
7202;DHT22;3642;52.506;13.304;2022-07-12T00:27:07;19.50;94.20
7202;DHT22;3642;52.506;13.304;2022-07-12T00:29:35;19.50;94.50
7202;DHT22;3642;52.506;13.304;2022-07-12T00:32:04;19.50;94.80
7202;DHT22;3642;52.506;13.304;2022-07-12T00:34:32;19.60;94.90
7202;DHT22;3642;52.506;13.304;2022-07-12T00:37:02;19.60;94.80
7202;DHT22;3642;52.506;13.304;2022-07-12T00:39:30;19.60;95.00
7202;DHT22;3642;52.506;13.304;2022-07-12T00:41:58;19.60;95.30
7202;DHT22;3642;52.506;13.304;2022-07-12T00:44:26;19.50;95.40
7202;DHT22;3642;52.506;13.304;2022-07-12T00:46:57;19.50;95.60
7202;DHT22;3642;52.506;13.304;2022-07-12T00:49:25;19.50;95.60
7202;DHT22;3642;52.506;13.304;2022-07-12T00:51:55;19.50;95.60
7202;DHT22;3642;52.506;13.304;2022-07-12T00:54:24;19.50;95.60
7202;DHT22;3642;52.506;13.304;2022-07-12T00:56:52;19.50;95.70
7202;DHT22;3642;52.506;13.304;2022-07-12T00:59:21;19.40;95.90
7202;DHT22;3642;52.506;13.304;2022-07-12T01:01:49;19.40;96.10
7202;DHT22;3642;52.506;13.304;2022-07-12T01:04:17;19.30;96.30
7202;DHT22;3642;52.506;13.304;2022-07-12T01:06:46;19.30;96.50
7202;DHT22;3642;52.506;13.304;2022-07-12T01:09:14;19.30;96.50
7202;DHT22;3642;52.506;13.304;2022-07-12T01:11:43;19.30;96.60
7202;DHT22;3642;52.506;13.304;2022-07-12T01:14:12;19.40;96.70
7202;DHT22;3642;52.506;13.304;2022-07-12T01:16:41;19.30;96.80
7202;DHT22;3642;52.506;13.304;2022-07-12T01:19:11;19.30;96.80
7202;DHT22;3642;52.506;13.304;2022-07-12T01:21:46;19.30;97.00
7202;DHT22;3642;52.506;13.304;2022-07-12T01:24:18;19.20;96.90
7202;DHT22;3642;52.506;13.304;2022-07-12T01:26:47;19.20;97.20
7202;DHT22;3642;52.506;13.304;2022-07-12T01:29:15;19.20;97.40
7202;DHT22;3642;52.506;13.304;2022-07-12T01:31:44;19.20;97.50
7202;DHT22;3642;52.506;13.304;2022-07-12T01:34:12;19.10;97.70
7202;DHT22;3642;52.506;13.304;2022-07-12T01:36:41;19.10;97.70
7202;DHT22;3642;52.506;13.304;2022-07-12T01:39:10;19.10;97.80
7202;DHT22;3642;52.506;13.304;2022-07-12T01:41:40;19.10;98.00
7202;DHT22;3642;52.506;13.304;2022-07-12T01:44:08;19.10;98.10
7202;DHT22;3642;52.506;13.304;2022-07-12T01:46:37;19.10;98.20
7202;DHT22;3642;52.506;13.304;2022-07-12T01:49:05;19.10;98.30
7202;DHT22;3642;52.506;13.304;2022-07-12T01:51:34;19.10;98.40
7202;DHT22;3642;52.506;13.304;2022-07-12T01:54:04;19.10;98.20
7202;DHT22;3642;52.506;13.304;2022-07-12T01:56:32;19.10;98.20
7202;DHT22;3642;52.506;13.304;2022-07-12T01:59:02;19.10;98.40
7202;DHT22;3642;52.506;13.304;2022-07-12T02:01:30;19.10;98.40
7202;DHT22;3642;52.506;13.304;2022-07-12T02:04:04;19.10;98.40
7202;DHT22;3642;52.506;13.304;2022-07-12T02:06:33;19.00;98.40
7202;DHT22;3642;52.506;13.304;2022-07-12T02:09:01;19.00;98.60
7202;DHT22;3642;52.506;13.304;2022-07-12T02:11:30;19.00;98.50
7202;DHT22;3642;52.506;13.304;2022-07-12T02:13:58;18.90;98.70
7202;DHT22;3642;52.506;13.304;2022-07-12T02:16:27;18.90;98.60
7202;DHT22;3642;52.506;13.304;2022-07-12T02:18:56;18.90;98.60
7202;DHT22;3642;52.506;13.304;2022-07-12T02:21:25;18.90;98.80
7202;DHT22;3642;52.506;13.304;2022-07-12T02:23:53;18.90;99.00
7202;DHT22;3642;52.506;13.304;2022-07-12T02:26:21;18.90;99.00
7202;DHT22;3642;52.506;13.304;2022-07-12T02:28:49;18.80;99.30
7202;DHT22;3642;52.506;13.304;2022-07-12T02:31:18;18.80;99.00
7202;DHT22;3642;52.506;13.304;2022-07-12T02:33:47;18.80;99.10
7202;DHT22;3642;52.506;13.304;2022-07-12T02:36:15;18.80;99.00
7202;DHT22;3642;52.506;13.304;2022-07-12T02:38:44;18.70;98.90
7202;DHT22;3642;52.506;13.304;2022-07-12T02:41:12;18.70;99.10
7202;DHT22;3642;52.506;13.304;2022-07-12T02:43:40;18.70;99.30
7202;DHT22;3642;52.506;13.304;2022-07-12T02:46:09;18.70;99.80
7202;DHT22;3642;52.506;13.304;2022-07-12T02:48:41;18.70;99.70
7202;DHT22;3642;52.506;13.304;2022-07-12T02:51:10;18.70;99.60
7202;DHT22;3642;52.506;13.304;2022-07-12T02:53:39;18.70;99.60
7202;DHT22;3642;52.506;13.304;2022-07-12T02:56:09;18.70;99.70
7202;DHT22;3642;52.506;13.304;2022-07-12T02:58:38;18.70;99.90
7202;DHT22;3642;52.506;13.304;2022-07-12T03:01:06;18.70;99.90
7202;DHT22;3642;52.506;13.304;2022-07-12T03:03:35;18.70;99.90
7202;DHT22;3642;52.506;13.304;2022-07-12T03:06:03;18.60;99.60
7202;DHT22;3642;52.506;13.304;2022-07-12T03:08:33;18.60;99.50
7202;DHT22;3642;52.506;13.304;2022-07-12T03:11:01;18.50;99.50
7202;DHT22;3642;52.506;13.304;2022-07-12T03:13:29;18.50;99.40
7202;DHT22;3642;52.506;13.304;2022-07-12T03:15:57;18.50;99.50
7202;DHT22;3642;52.506;13.304;2022-07-12T03:18:26;18.40;99.60
7202;DHT22;3642;52.506;13.304;2022-07-12T03:20:55;18.50;99.60
7202;DHT22;3642;52.506;13.304;2022-07-12T03:23:23;18.40;99.80
7202;DHT22;3642;52.506;13.304;2022-07-12T03:25:53;18.40;99.90
7202;DHT22;3642;52.506;13.304;2022-07-12T03:28:22;18.30;99.90
7202;DHT22;3642;52.506;13.304;2022-07-12T03:30:50;18.30;99.90
7202;DHT22;3642;52.506;13.304;2022-07-12T03:33:18;18.30;99.90
7202;DHT22;3642;52.506;13.304;2022-07-12T03:35:47;18.20;99.90
7202;DHT22;3642;52.506;13.304;2022-07-12T03:38:15;18.10;99.90
7202;DHT22;3642;52.506;13.304;2022-07-12T03:40:43;18.10;99.90
7202;DHT22;3642;52.506;13.304;2022-07-12T03:43:12;18.00;99.90
7202;DHT22;3642;52.506;13.304;2022-07-12T03:45:41;18.10;99.90
7202;DHT22;3642;52.506;13.304;2022-07-12T03:48:10;18.10;99.90
7202;DHT22;3642;52.506;13.304;2022-07-12T03:50:38;18.10;99.90
7202;DHT22;3642;52.506;13.304;2022-07-12T03:53:09;18.10;99.90
7202;DHT22;3642;52.506;13.304;2022-07-12T03:55:38;18.10;99.90
7202;DHT22;3642;52.506;13.304;2022-07-12T03:58:06;18.00;99.90
7202;DHT22;3642;52.506;13.304;2022-07-12T04:00:35;18.00;99.90
7202;DHT22;3642;52.506;13.304;2022-07-12T04:03:06;17.90;99.90
7202;DHT22;3642;52.506;13.304;2022-07-12T04:05:34;17.80;99.90
7202;DHT22;3642;52.506;13.304;2022-07-12T04:08:03;17.80;99.90
7202;DHT22;3642;52.506;13.304;2022-07-12T04:10:31;17.80;99.90
7202;DHT22;3642;52.506;13.304;2022-07-12T04:12:59;17.80;99.90
7202;DHT22;3642;52.506;13.304;2022-07-12T04:15:27;17.80;99.90
7202;DHT22;3642;52.506;13.304;2022-07-12T04:17:57;17.90;99.90
7202;DHT22;3642;52.506;13.304;2022-07-12T04:20:25;17.90;99.90
7202;DHT22;3642;52.506;13.304;2022-07-12T04:22:53;17.90;99.90
7202;DHT22;3642;52.506;13.304;2022-07-12T04:25:22;18.00;99.90
7202;DHT22;3642;52.506;13.304;2022-07-12T04:27:51;18.00;99.90
7202;DHT22;3642;52.506;13.304;2022-07-12T04:30:22;18.00;99.90
7202;DHT22;3642;52.506;13.304;2022-07-12T04:32:50;18.00;99.90
7202;DHT22;3642;52.506;13.304;2022-07-12T04:35:20;18.00;99.90
7202;DHT22;3642;52.506;13.304;2022-07-12T04:37:48;18.10;99.90
7202;DHT22;3642;52.506;13.304;2022-07-12T04:40:16;18.10;99.90
7202;DHT22;3642;52.506;13.304;2022-07-12T04:42:46;18.10;99.70
7202;DHT22;3642;52.506;13.304;2022-07-12T04:45:15;18.00;99.60
7202;DHT22;3642;52.506;13.304;2022-07-12T04:47:43;18.10;99.10
7202;DHT22;3642;52.506;13.304;2022-07-12T04:50:12;18.10;99.10
7202;DHT22;3642;52.506;13.304;2022-07-12T04:52:42;18.10;99.00
7202;DHT22;3642;52.506;13.304;2022-07-12T04:55:10;18.10;98.90
7202;DHT22;3642;52.506;13.304;2022-07-12T04:57:39;18.00;98.60
7202;DHT22;3642;52.506;13.304;2022-07-12T05:00:08;18.00;98.80
7202;DHT22;3642;52.506;13.304;2022-07-12T05:02:36;18.10;98.60
7202;DHT22;3642;52.506;13.304;2022-07-12T05:05:06;18.10;98.40
7202;DHT22;3642;52.506;13.304;2022-07-12T05:07:34;18.00;98.20
7202;DHT22;3642;52.506;13.304;2022-07-12T05:10:04;18.10;98.50
7202;DHT22;3642;52.506;13.304;2022-07-12T05:12:34;18.10;98.60
7202;DHT22;3642;52.506;13.304;2022-07-12T05:15:03;18.10;98.50
7202;DHT22;3642;52.506;13.304;2022-07-12T05:17:31;18.00;98.60
7202;DHT22;3642;52.506;13.304;2022-07-12T05:19:59;18.10;98.40
7202;DHT22;3642;52.506;13.304;2022-07-12T05:22:28;18.10;98.30
7202;DHT22;3642;52.506;13.304;2022-07-12T05:24:56;18.10;98.30
7202;DHT22;3642;52.506;13.304;2022-07-12T05:27:26;18.10;98.00
7202;DHT22;3642;52.506;13.304;2022-07-12T05:29:55;18.10;97.90
7202;DHT22;3642;52.506;13.304;2022-07-12T05:32:23;18.10;97.70
7202;DHT22;3642;52.506;13.304;2022-07-12T05:34:51;18.20;97.70
7202;DHT22;3642;52.506;13.304;2022-07-12T05:37:20;18.20;97.40
7202;DHT22;3642;52.506;13.304;2022-07-12T05:39:50;18.30;97.00
7202;DHT22;3642;52.506;13.304;2022-07-12T05:42:19;18.40;96.80
7202;DHT22;3642;52.506;13.304;2022-07-12T05:44:49;18.40;96.40
7202;DHT22;3642;52.506;13.304;2022-07-12T05:47:17;18.50;96.30
7202;DHT22;3642;52.506;13.304;2022-07-12T05:49:45;18.60;95.70
7202;DHT22;3642;52.506;13.304;2022-07-12T05:52:13;18.60;95.60
7202;DHT22;3642;52.506;13.304;2022-07-12T05:54:59;18.60;94.70
7202;DHT22;3642;52.506;13.304;2022-07-12T05:57:27;18.60;94.40
7202;DHT22;3642;52.506;13.304;2022-07-12T05:59:57;18.70;94.30
7202;DHT22;3642;52.506;13.304;2022-07-12T06:02:25;18.70;93.70
7202;DHT22;3642;52.506;13.304;2022-07-12T06:04:54;18.80;93.60
7202;DHT22;3642;52.506;13.304;2022-07-12T06:07:22;18.80;93.10
7202;DHT22;3642;52.506;13.304;2022-07-12T06:09:50;18.80;93.00
7202;DHT22;3642;52.506;13.304;2022-07-12T06:12:21;18.80;93.30
7202;DHT22;3642;52.506;13.304;2022-07-12T06:14:50;18.80;93.00
7202;DHT22;3642;52.506;13.304;2022-07-12T06:17:22;18.90;92.70
7202;DHT22;3642;52.506;13.304;2022-07-12T06:19:50;19.00;92.50
7202;DHT22;3642;52.506;13.304;2022-07-12T06:22:19;19.00;92.60
7202;DHT22;3642;52.506;13.304;2022-07-12T06:24:48;19.00;92.70
7202;DHT22;3642;52.506;13.304;2022-07-12T06:27:16;19.00;92.50
7202;DHT22;3642;52.506;13.304;2022-07-12T06:29:45;19.10;92.30
7202;DHT22;3642;52.506;13.304;2022-07-12T06:32:15;19.10;92.30
7202;DHT22;3642;52.506;13.304;2022-07-12T06:34:45;19.20;92.60
7202;DHT22;3642;52.506;13.304;2022-07-12T06:37:13;19.20;92.40
7202;DHT22;3642;52.506;13.304;2022-07-12T06:39:42;19.20;92.40
7202;DHT22;3642;52.506;13.304;2022-07-12T06:42:13;19.30;92.50
7202;DHT22;3642;52.506;13.304;2022-07-12T06:44:42;19.40;92.50
7202;DHT22;3642;52.506;13.304;2022-07-12T06:47:10;19.40;92.60
7202;DHT22;3642;52.506;13.304;2022-07-12T06:49:38;19.40;92.80
7202;DHT22;3642;52.506;13.304;2022-07-12T06:52:08;19.40;92.70
7202;DHT22;3642;52.506;13.304;2022-07-12T06:54:36;19.50;92.90
7202;DHT22;3642;52.506;13.304;2022-07-12T06:57:05;19.50;92.90
7202;DHT22;3642;52.506;13.304;2022-07-12T06:59:33;19.50;92.70
7202;DHT22;3642;52.506;13.304;2022-07-12T07:02:01;19.60;92.90
7202;DHT22;3642;52.506;13.304;2022-07-12T07:04:30;19.60;92.60
7202;DHT22;3642;52.506;13.304;2022-07-12T07:06:58;19.70;92.80
7202;DHT22;3642;52.506;13.304;2022-07-12T07:09:28;19.70;92.70
7202;DHT22;3642;52.506;13.304;2022-07-12T07:11:56;19.80;92.20
7202;DHT22;3642;52.506;13.304;2022-07-12T07:14:24;19.80;92.10
7202;DHT22;3642;52.506;13.304;2022-07-12T07:16:53;19.80;92.30
7202;DHT22;3642;52.506;13.304;2022-07-12T07:19:23;19.90;92.40
7202;DHT22;3642;52.506;13.304;2022-07-12T07:21:53;20.00;92.70
7202;DHT22;3642;52.506;13.304;2022-07-12T07:24:22;20.10;92.80
7202;DHT22;3642;52.506;13.304;2022-07-12T07:26:51;20.10;92.70
7202;DHT22;3642;52.506;13.304;2022-07-12T07:29:24;20.20;92.90
7202;DHT22;3642;52.506;13.304;2022-07-12T07:32:10;20.20;92.90
7202;DHT22;3642;52.506;13.304;2022-07-12T07:34:38;20.30;92.90
7202;DHT22;3642;52.506;13.304;2022-07-12T07:37:08;20.40;93.10
7202;DHT22;3642;52.506;13.304;2022-07-12T07:39:37;20.50;92.90
7202;DHT22;3642;52.506;13.304;2022-07-12T07:42:06;20.50;92.80
7202;DHT22;3642;52.506;13.304;2022-07-12T07:44:35;20.60;92.40
7202;DHT22;3642;52.506;13.304;2022-07-12T07:47:23;20.70;92.40
7202;DHT22;3642;52.506;13.304;2022-07-12T07:49:54;20.70;92.10
7202;DHT22;3642;52.506;13.304;2022-07-12T07:52:23;20.80;91.40
7202;DHT22;3642;52.506;13.304;2022-07-12T07:54:51;20.90;91.30
7202;DHT22;3642;52.506;13.304;2022-07-12T07:57:21;20.90;91.10
7202;DHT22;3642;52.506;13.304;2022-07-12T07:59:49;20.90;90.40
7202;DHT22;3642;52.506;13.304;2022-07-12T08:02:17;20.80;90.50
7202;DHT22;3642;52.506;13.304;2022-07-12T08:04:46;20.90;90.60
7202;DHT22;3642;52.506;13.304;2022-07-12T08:07:14;20.90;90.20
7202;DHT22;3642;52.506;13.304;2022-07-12T08:10:03;21.00;90.10
7202;DHT22;3642;52.506;13.304;2022-07-12T08:12:33;21.10;90.10
7202;DHT22;3642;52.506;13.304;2022-07-12T08:15:02;21.10;90.20
7202;DHT22;3642;52.506;13.304;2022-07-12T08:17:31;21.20;89.80
7202;DHT22;3642;52.506;13.304;2022-07-12T08:20:04;21.20;89.20
7202;DHT22;3642;52.506;13.304;2022-07-12T08:22:52;21.20;88.80
7202;DHT22;3642;52.506;13.304;2022-07-12T08:25:21;21.30;87.90
7202;DHT22;3642;52.506;13.304;2022-07-12T08:27:51;21.30;87.40
7202;DHT22;3642;52.506;13.304;2022-07-12T08:30:20;21.30;87.90
7202;DHT22;3642;52.506;13.304;2022-07-12T08:32:48;21.40;88.10
7202;DHT22;3642;52.506;13.304;2022-07-12T08:35:17;21.40;87.60
7202;DHT22;3642;52.506;13.304;2022-07-12T08:37:46;21.50;87.50
7202;DHT22;3642;52.506;13.304;2022-07-12T08:40:15;21.50;86.70
7202;DHT22;3642;52.506;13.304;2022-07-12T08:42:43;21.50;85.60
7202;DHT22;3642;52.506;13.304;2022-07-12T08:45:16;21.60;85.50
7202;DHT22;3642;52.506;13.304;2022-07-12T08:47:44;21.60;85.60
7202;DHT22;3642;52.506;13.304;2022-07-12T08:50:15;21.70;85.10
7202;DHT22;3642;52.506;13.304;2022-07-12T08:52:48;21.70;85.00
7202;DHT22;3642;52.506;13.304;2022-07-12T08:55:22;21.80;82.10
7202;DHT22;3642;52.506;13.304;2022-07-12T08:57:52;21.80;81.10
7202;DHT22;3642;52.506;13.304;2022-07-12T09:00:24;21.80;81.80
7202;DHT22;3642;52.506;13.304;2022-07-12T09:02:53;21.90;82.20
7202;DHT22;3642;52.506;13.304;2022-07-12T09:05:23;21.90;82.90
7202;DHT22;3642;52.506;13.304;2022-07-12T09:08:01;21.90;83.30
7202;DHT22;3642;52.506;13.304;2022-07-12T09:10:30;21.90;83.50
7202;DHT22;3642;52.506;13.304;2022-07-12T09:12:59;21.90;83.30
7202;DHT22;3642;52.506;13.304;2022-07-12T09:15:28;22.00;82.50
7202;DHT22;3642;52.506;13.304;2022-07-12T09:17:58;22.10;82.70
7202;DHT22;3642;52.506;13.304;2022-07-12T09:20:30;22.10;82.20
7202;DHT22;3642;52.506;13.304;2022-07-12T09:22:59;22.20;82.80
7202;DHT22;3642;52.506;13.304;2022-07-12T09:25:28;22.20;82.70
7202;DHT22;3642;52.506;13.304;2022-07-12T09:27:57;22.30;83.70
7202;DHT22;3642;52.506;13.304;2022-07-12T09:30:28;22.30;83.40
7202;DHT22;3642;52.506;13.304;2022-07-12T09:33:00;22.30;82.50
7202;DHT22;3642;52.506;13.304;2022-07-12T09:35:59;22.30;82.30
7202;DHT22;3642;52.506;13.304;2022-07-12T09:38:38;22.30;82.10
7202;DHT22;3642;52.506;13.304;2022-07-12T09:41:08;22.40;82.60
7202;DHT22;3642;52.506;13.304;2022-07-12T09:43:36;22.40;81.60
7202;DHT22;3642;52.506;13.304;2022-07-12T09:46:11;22.40;80.70
7202;DHT22;3642;52.506;13.304;2022-07-12T09:48:40;22.40;79.70
7202;DHT22;3642;52.506;13.304;2022-07-12T09:51:10;22.50;79.70
7202;DHT22;3642;52.506;13.304;2022-07-12T09:53:43;22.50;78.60
7202;DHT22;3642;52.506;13.304;2022-07-12T09:56:13;22.60;79.00
7202;DHT22;3642;52.506;13.304;2022-07-12T09:58:47;22.60;79.30
7202;DHT22;3642;52.506;13.304;2022-07-12T10:01:21;22.60;78.60
7202;DHT22;3642;52.506;13.304;2022-07-12T10:03:51;22.60;76.90
7202;DHT22;3642;52.506;13.304;2022-07-12T10:06:24;22.60;77.00
7202;DHT22;3642;52.506;13.304;2022-07-12T10:09:01;22.70;76.80
7202;DHT22;3642;52.506;13.304;2022-07-12T10:11:30;22.70;76.50
7202;DHT22;3642;52.506;13.304;2022-07-12T10:14:19;22.70;76.80
7202;DHT22;3642;52.506;13.304;2022-07-12T10:16:51;22.70;75.60
7202;DHT22;3642;52.506;13.304;2022-07-12T10:19:24;22.80;74.70
7202;DHT22;3642;52.506;13.304;2022-07-12T10:21:54;22.80;74.50
7202;DHT22;3642;52.506;13.304;2022-07-12T10:24:47;22.90;74.00
7202;DHT22;3642;52.506;13.304;2022-07-12T10:27:31;22.90;73.70
7202;DHT22;3642;52.506;13.304;2022-07-12T10:30:18;23.00;73.90
7202;DHT22;3642;52.506;13.304;2022-07-12T10:32:49;23.10;74.40
7202;DHT22;3642;52.506;13.304;2022-07-12T10:35:21;23.10;74.60
7202;DHT22;3642;52.506;13.304;2022-07-12T10:38:17;23.00;74.30
7202;DHT22;3642;52.506;13.304;2022-07-12T10:40:50;23.10;74.20
7202;DHT22;3642;52.506;13.304;2022-07-12T10:43:23;23.10;74.40
7202;DHT22;3642;52.506;13.304;2022-07-12T10:46:18;23.00;74.20
7202;DHT22;3642;52.506;13.304;2022-07-12T10:48:51;22.90;74.10
7202;DHT22;3642;52.506;13.304;2022-07-12T10:51:29;23.10;74.10
7202;DHT22;3642;52.506;13.304;2022-07-12T10:54:19;23.20;73.90
7202;DHT22;3642;52.506;13.304;2022-07-12T10:56:55;23.30;74.00
7202;DHT22;3642;52.506;13.304;2022-07-12T10:59:26;23.40;74.80
7202;DHT22;3642;52.506;13.304;2022-07-12T11:01:55;23.50;73.20
7202;DHT22;3642;52.506;13.304;2022-07-12T11:04:28;23.60;73.50
7202;DHT22;3642;52.506;13.304;2022-07-12T11:07:01;23.60;73.20
7202;DHT22;3642;52.506;13.304;2022-07-12T11:09:29;23.60;73.00
7202;DHT22;3642;52.506;13.304;2022-07-12T11:11:58;23.70;73.70
7202;DHT22;3642;52.506;13.304;2022-07-12T11:14:29;23.70;71.50
7202;DHT22;3642;52.506;13.304;2022-07-12T11:16:59;23.60;70.00
7202;DHT22;3642;52.506;13.304;2022-07-12T11:19:30;23.70;69.10
7202;DHT22;3642;52.506;13.304;2022-07-12T11:21:58;23.80;69.40
7202;DHT22;3642;52.506;13.304;2022-07-12T11:24:29;24.00;69.00
7202;DHT22;3642;52.506;13.304;2022-07-12T11:26:58;24.00;69.80
7202;DHT22;3642;52.506;13.304;2022-07-12T11:29:27;24.00;70.50
7202;DHT22;3642;52.506;13.304;2022-07-12T11:32:00;23.90;70.50
7202;DHT22;3642;52.506;13.304;2022-07-12T11:34:38;23.90;69.80
7202;DHT22;3642;52.506;13.304;2022-07-12T11:37:06;23.90;68.40
7202;DHT22;3642;52.506;13.304;2022-07-12T11:39:36;24.00;68.50
7202;DHT22;3642;52.506;13.304;2022-07-12T11:42:06;23.90;68.70
7202;DHT22;3642;52.506;13.304;2022-07-12T11:44:44;23.90;69.20
7202;DHT22;3642;52.506;13.304;2022-07-12T11:47:13;23.90;69.40
7202;DHT22;3642;52.506;13.304;2022-07-12T11:49:43;23.80;68.90
7202;DHT22;3642;52.506;13.304;2022-07-12T11:52:13;23.90;67.80
7202;DHT22;3642;52.506;13.304;2022-07-12T11:54:42;24.00;67.40
7202;DHT22;3642;52.506;13.304;2022-07-12T11:57:11;24.30;66.90
7202;DHT22;3642;52.506;13.304;2022-07-12T11:59:42;24.40;65.90
7202;DHT22;3642;52.506;13.304;2022-07-12T12:02:11;24.70;66.30
7202;DHT22;3642;52.506;13.304;2022-07-12T12:04:46;24.70;65.80
7202;DHT22;3642;52.506;13.304;2022-07-12T12:07:15;24.60;66.00
7202;DHT22;3642;52.506;13.304;2022-07-12T12:10:01;24.50;65.70
7202;DHT22;3642;52.506;13.304;2022-07-12T12:12:36;24.40;66.00
7202;DHT22;3642;52.506;13.304;2022-07-12T12:15:06;24.40;66.10
7202;DHT22;3642;52.506;13.304;2022-07-12T12:17:35;24.40;66.20
7202;DHT22;3642;52.506;13.304;2022-07-12T12:20:16;24.50;66.20
7202;DHT22;3642;52.506;13.304;2022-07-12T12:22:46;24.60;65.80
7202;DHT22;3642;52.506;13.304;2022-07-12T12:25:16;24.60;64.90
7202;DHT22;3642;52.506;13.304;2022-07-12T12:27:45;24.60;64.90
7202;DHT22;3642;52.506;13.304;2022-07-12T12:30:34;24.60;65.10
7202;DHT22;3642;52.506;13.304;2022-07-12T12:33:04;24.80;65.50
7202;DHT22;3642;52.506;13.304;2022-07-12T12:35:36;24.90;65.30
7202;DHT22;3642;52.506;13.304;2022-07-12T12:38:11;25.10;64.50
7202;DHT22;3642;52.506;13.304;2022-07-12T12:40:40;25.20;64.10
7202;DHT22;3642;52.506;13.304;2022-07-12T12:43:11;25.40;63.70
7202;DHT22;3642;52.506;13.304;2022-07-12T12:45:49;25.40;63.50
7202;DHT22;3642;52.506;13.304;2022-07-12T12:48:19;25.40;63.40
7202;DHT22;3642;52.506;13.304;2022-07-12T12:50:50;25.20;64.50
7202;DHT22;3642;52.506;13.304;2022-07-12T12:53:20;25.00;63.90
7202;DHT22;3642;52.506;13.304;2022-07-12T12:55:51;25.00;64.20
7202;DHT22;3642;52.506;13.304;2022-07-12T12:58:20;25.10;64.60
7202;DHT22;3642;52.506;13.304;2022-07-12T13:00:50;25.20;65.00
7202;DHT22;3642;52.506;13.304;2022-07-12T13:03:21;25.40;65.30
7202;DHT22;3642;52.506;13.304;2022-07-12T13:05:52;25.50;66.40
7202;DHT22;3642;52.506;13.304;2022-07-12T13:08:23;25.60;66.90
7202;DHT22;3642;52.506;13.304;2022-07-12T13:10:51;25.60;66.30
7202;DHT22;3642;52.506;13.304;2022-07-12T13:13:34;25.70;66.20
7202;DHT22;3642;52.506;13.304;2022-07-12T13:16:02;25.70;64.90
7202;DHT22;3642;52.506;13.304;2022-07-12T13:18:31;25.80;64.90
7202;DHT22;3642;52.506;13.304;2022-07-12T13:21:00;25.80;64.60
7202;DHT22;3642;52.506;13.304;2022-07-12T13:23:29;26.00;64.20
7202;DHT22;3642;52.506;13.304;2022-07-12T13:25:57;26.00;63.80
7202;DHT22;3642;52.506;13.304;2022-07-12T13:28:25;26.00;64.00
7202;DHT22;3642;52.506;13.304;2022-07-12T13:30:53;25.90;63.90
7202;DHT22;3642;52.506;13.304;2022-07-12T13:33:22;25.70;64.20
7202;DHT22;3642;52.506;13.304;2022-07-12T13:35:50;25.70;65.40
7202;DHT22;3642;52.506;13.304;2022-07-12T13:38:20;25.70;64.10
7202;DHT22;3642;52.506;13.304;2022-07-12T13:40:49;25.70;63.90
7202;DHT22;3642;52.506;13.304;2022-07-12T13:43:18;25.80;62.80
7202;DHT22;3642;52.506;13.304;2022-07-12T13:45:46;25.90;62.90
7202;DHT22;3642;52.506;13.304;2022-07-12T13:48:17;26.10;62.80
7202;DHT22;3642;52.506;13.304;2022-07-12T13:50:45;26.10;63.00
7202;DHT22;3642;52.506;13.304;2022-07-12T13:53:35;26.00;62.10
7202;DHT22;3642;52.506;13.304;2022-07-12T13:56:06;25.90;62.10
7202;DHT22;3642;52.506;13.304;2022-07-12T13:58:34;25.90;62.70
7202;DHT22;3642;52.506;13.304;2022-07-12T14:01:05;25.90;63.10
7202;DHT22;3642;52.506;13.304;2022-07-12T14:03:34;25.90;63.50
7202;DHT22;3642;52.506;13.304;2022-07-12T14:06:03;25.90;62.40
7202;DHT22;3642;52.506;13.304;2022-07-12T14:08:32;26.00;62.90
7202;DHT22;3642;52.506;13.304;2022-07-12T14:11:02;26.10;62.40
7202;DHT22;3642;52.506;13.304;2022-07-12T14:13:35;26.10;62.00
7202;DHT22;3642;52.506;13.304;2022-07-12T14:16:10;26.10;62.30
7202;DHT22;3642;52.506;13.304;2022-07-12T14:18:40;26.10;62.20
7202;DHT22;3642;52.506;13.304;2022-07-12T14:21:08;26.10;62.50
7202;DHT22;3642;52.506;13.304;2022-07-12T14:23:38;26.10;62.60
7202;DHT22;3642;52.506;13.304;2022-07-12T14:26:12;26.20;62.50
7202;DHT22;3642;52.506;13.304;2022-07-12T14:28:40;26.40;62.50
7202;DHT22;3642;52.506;13.304;2022-07-12T14:31:10;26.50;62.40
7202;DHT22;3642;52.506;13.304;2022-07-12T14:33:39;26.70;61.70
7202;DHT22;3642;52.506;13.304;2022-07-12T14:36:07;26.70;60.90
7202;DHT22;3642;52.506;13.304;2022-07-12T14:38:35;26.80;60.90
7202;DHT22;3642;52.506;13.304;2022-07-12T14:41:04;26.80;60.80
7202;DHT22;3642;52.506;13.304;2022-07-12T14:43:33;26.70;60.80
7202;DHT22;3642;52.506;13.304;2022-07-12T14:46:02;26.70;60.60
7202;DHT22;3642;52.506;13.304;2022-07-12T14:48:31;26.80;60.50
7202;DHT22;3642;52.506;13.304;2022-07-12T14:51:00;26.90;60.40
7202;DHT22;3642;52.506;13.304;2022-07-12T14:53:28;27.00;60.30
7202;DHT22;3642;52.506;13.304;2022-07-12T14:55:56;27.10;60.30
7202;DHT22;3642;52.506;13.304;2022-07-12T14:58:25;27.20;60.30
7202;DHT22;3642;52.506;13.304;2022-07-12T15:00:58;27.30;60.20
7202;DHT22;3642;52.506;13.304;2022-07-12T15:03:29;27.30;60.00
7202;DHT22;3642;52.506;13.304;2022-07-12T15:05:57;27.10;59.80
7202;DHT22;3642;52.506;13.304;2022-07-12T15:08:26;27.20;59.80
7202;DHT22;3642;52.506;13.304;2022-07-12T15:10:54;27.30;59.90
7202;DHT22;3642;52.506;13.304;2022-07-12T15:13:22;27.40;59.50
7202;DHT22;3642;52.506;13.304;2022-07-12T15:15:51;27.50;59.50
7202;DHT22;3642;52.506;13.304;2022-07-12T15:18:20;27.50;58.90
7202;DHT22;3642;52.506;13.304;2022-07-12T15:20:51;27.50;58.90
7202;DHT22;3642;52.506;13.304;2022-07-12T15:23:19;27.20;59.10
7202;DHT22;3642;52.506;13.304;2022-07-12T15:25:48;27.00;59.10
7202;DHT22;3642;52.506;13.304;2022-07-12T15:28:19;26.90;59.20
7202;DHT22;3642;52.506;13.304;2022-07-12T15:30:49;26.80;59.30
7202;DHT22;3642;52.506;13.304;2022-07-12T15:33:17;26.80;59.20
7202;DHT22;3642;52.506;13.304;2022-07-12T15:35:47;26.80;59.40
7202;DHT22;3642;52.506;13.304;2022-07-12T15:38:15;26.80;59.10
7202;DHT22;3642;52.506;13.304;2022-07-12T15:40:44;27.00;58.90
7202;DHT22;3642;52.506;13.304;2022-07-12T15:43:12;27.10;58.70
7202;DHT22;3642;52.506;13.304;2022-07-12T15:45:41;26.90;58.90
7202;DHT22;3642;52.506;13.304;2022-07-12T15:48:09;26.70;59.10
7202;DHT22;3642;52.506;13.304;2022-07-12T15:50:39;26.70;59.40
7202;DHT22;3642;52.506;13.304;2022-07-12T15:53:08;26.60;59.50
7202;DHT22;3642;52.506;13.304;2022-07-12T15:55:56;26.80;59.60
7202;DHT22;3642;52.506;13.304;2022-07-12T15:58:27;27.00;59.20
7202;DHT22;3642;52.506;13.304;2022-07-12T16:00:57;27.40;58.80
7202;DHT22;3642;52.506;13.304;2022-07-12T16:03:26;27.70;58.40
7202;DHT22;3642;52.506;13.304;2022-07-12T16:05:56;27.80;58.50